createdAt,value
2023-01-28T00:01:17.536Z,15.00
2023-01-28T00:03:45.396Z,14.80
2023-01-28T00:06:14.751Z,13.90
2023-01-28T00:08:42.161Z,15.88
2023-01-28T00:11:11.967Z,16.58
2023-01-28T00:13:39.492Z,15.57
2023-01-28T00:16:11.479Z,15.77
2023-01-28T00:18:39.267Z,15.13
2023-01-28T00:21:10.124Z,15.32
2023-01-28T00:23:38.865Z,17.50
2023-01-28T00:26:14.354Z,15.20
2023-01-28T00:28:42.553Z,17.10
2023-01-28T00:31:22.335Z,16.05
2023-01-28T00:33:51.157Z,18.20
2023-01-28T00:36:19.659Z,17.67
2023-01-28T00:38:53.643Z,18.05
2023-01-28T00:41:22.655Z,17.88
2023-01-28T00:43:53.578Z,17.95
2023-01-28T00:46:22.031Z,17.65
2023-01-28T00:48:49.878Z,21.20
2023-01-28T00:51:20.161Z,18.80
2023-01-28T00:53:48.049Z,19.13
2023-01-28T00:56:18.081Z,19.05
2023-01-28T00:58:45.720Z,19.70
2023-01-28T01:01:16.287Z,17.08
2023-01-28T01:03:46.052Z,18.40
2023-01-28T01:06:15.251Z,19.63
2023-01-28T01:08:50.303Z,20.50
2023-01-28T01:11:18.118Z,20.23
2023-01-28T01:13:47.240Z,18.88
2023-01-28T01:16:16.728Z,20.90
2023-01-28T01:18:44.501Z,19.30
2023-01-28T01:21:18.023Z,17.90
2023-01-28T01:23:46.746Z,18.42
2023-01-28T01:26:14.754Z,16.50
2023-01-28T01:28:42.511Z,16.75
2023-01-28T01:31:16.159Z,17.92
2023-01-28T01:33:45.617Z,17.38
2023-01-28T01:36:15.122Z,17.23
2023-01-28T01:38:42.947Z,18.85
2023-01-28T01:41:16.769Z,16.92
2023-01-28T01:43:54.963Z,15.27
2023-01-28T01:46:44.469Z,15.52
2023-01-28T01:49:21.641Z,15.65
2023-01-28T01:51:55.026Z,14.85
2023-01-28T01:54:24.617Z,15.07
2023-01-28T01:56:52.447Z,16.73
2023-01-28T01:59:24.456Z,17.25
2023-01-28T02:01:52.416Z,17.77
2023-01-28T02:04:32.502Z,17.88
2023-01-28T02:07:01.136Z,17.17
2023-01-28T02:09:30.817Z,16.35
2023-01-28T02:12:02.073Z,15.23
2023-01-28T02:14:34.012Z,15.63
2023-01-28T02:17:02.200Z,17.10
2023-01-28T02:19:39.985Z,16.27
2023-01-28T02:22:22.434Z,16.83
2023-01-28T02:24:52.838Z,16.73
2023-01-28T02:27:42.001Z,16.27
2023-01-28T02:30:19.347Z,16.17
2023-01-28T02:33:04.733Z,17.42
2023-01-28T02:35:53.868Z,17.92
2023-01-28T02:38:31.705Z,18.33
2023-01-28T02:41:07.694Z,16.65
2023-01-28T02:43:40.552Z,15.98
2023-01-28T02:49:00.276Z,17.10
2023-01-28T02:51:36.274Z,17.27
2023-01-28T02:54:24.949Z,16.55
2023-01-28T02:57:07.567Z,15.57
2023-01-28T03:00:11.244Z,16.25
2023-01-28T03:02:43.932Z,17.52
2023-01-28T03:05:14.257Z,16.20
2023-01-28T03:07:42.040Z,17.77
2023-01-28T03:10:14.659Z,17.00
2023-01-28T03:13:02.703Z,18.58
2023-01-28T03:16:01.734Z,15.25
2023-01-28T03:19:08.769Z,15.65
2023-01-28T03:21:59.984Z,16.70
2023-01-28T03:24:51.988Z,16.88
2023-01-28T03:27:54.029Z,17.17
2023-01-28T03:30:56.087Z,13.88
2023-01-28T03:33:43.378Z,15.98
2023-01-28T03:36:29.575Z,14.93
2023-01-28T03:38:58.600Z,15.88
2023-01-28T03:41:27.312Z,14.65
2023-01-28T03:43:56.054Z,15.98
2023-01-28T03:46:23.851Z,16.38
2023-01-28T03:48:51.351Z,16.48
2023-01-28T03:51:18.745Z,16.85
2023-01-28T03:53:46.125Z,16.23
2023-01-28T03:56:18.396Z,16.67
2023-01-28T03:58:56.696Z,16.38
2023-01-28T04:01:27.304Z,17.30
2023-01-28T04:03:54.619Z,16.63
2023-01-28T04:06:21.989Z,15.73
2023-01-28T04:08:53.111Z,15.20
2023-01-28T04:11:21.516Z,16.83
2023-01-28T04:13:49.505Z,17.23
2023-01-28T04:16:18.840Z,16.23
2023-01-28T04:18:46.451Z,16.42
2023-01-28T04:21:13.776Z,16.30
2023-01-28T04:23:41.164Z,16.20
2023-01-28T04:26:08.731Z,16.40
2023-01-28T04:28:36.204Z,17.48
2023-01-28T04:31:03.712Z,17.20
2023-01-28T04:33:31.227Z,16.10
2023-01-28T04:35:58.703Z,16.40
2023-01-28T04:38:26.132Z,17.33
2023-01-28T04:40:54.382Z,16.75
2023-01-28T04:43:22.564Z,15.82
2023-01-28T04:45:51.383Z,16.35
2023-01-28T04:48:18.770Z,16.02
2023-01-28T04:50:46.555Z,18.25
2023-01-28T04:53:14.229Z,15.00
2023-01-28T04:55:41.673Z,15.80
2023-01-28T04:58:09.199Z,16.38
2023-01-28T05:00:36.644Z,15.80
2023-01-28T05:03:04.165Z,14.93
2023-01-28T05:05:31.616Z,17.35
2023-01-28T05:07:59.751Z,18.05
2023-01-28T05:10:27.984Z,16.63
2023-01-28T05:12:55.594Z,14.88
2023-01-28T05:15:23.201Z,15.38
2023-01-28T05:17:50.665Z,14.73
2023-01-28T05:20:18.185Z,15.60
2023-01-28T05:22:45.560Z,18.65
2023-01-28T05:25:13.399Z,16.33
2023-01-28T05:27:40.886Z,14.00
2023-01-28T05:30:09.015Z,15.02
2023-01-28T05:32:39.259Z,14.13
2023-01-28T05:35:07.108Z,17.05
2023-01-28T05:37:34.642Z,15.50
2023-01-28T05:40:01.994Z,16.05
2023-01-28T05:42:29.452Z,18.20
2023-01-28T05:44:56.784Z,17.08
2023-01-28T05:47:30.225Z,19.50
2023-01-28T05:49:57.638Z,16.73
2023-01-28T05:52:25.060Z,17.48
2023-01-28T05:54:52.529Z,17.77
2023-01-28T05:57:19.863Z,17.17
2023-01-28T05:59:47.316Z,18.83
2023-01-28T06:02:14.694Z,16.05
2023-01-28T06:04:42.013Z,14.55
2023-01-28T06:07:09.437Z,15.32
2023-01-28T06:09:36.803Z,14.20
2023-01-28T06:12:04.277Z,17.05
2023-01-28T06:14:31.695Z,14.20
2023-01-28T06:16:59.081Z,14.50
2023-01-28T06:19:26.630Z,20.48
2023-01-28T06:21:54.301Z,12.18
2023-01-28T06:24:22.058Z,15.07
2023-01-28T06:26:55.501Z,16.80
2023-01-28T06:29:23.303Z,15.25
2023-01-28T06:31:51.291Z,16.48
2023-01-28T06:34:18.793Z,16.58
2023-01-28T06:36:46.532Z,15.13
2023-01-28T06:39:14.083Z,16.25
2023-01-28T06:41:41.443Z,15.88
2023-01-28T06:44:08.918Z,14.48
2023-01-28T06:46:36.392Z,15.00
2023-01-28T06:49:03.892Z,13.82
2023-01-28T06:51:31.451Z,12.70
2023-01-28T06:53:58.833Z,14.20
2023-01-28T06:56:29.441Z,14.15
2023-01-28T06:58:56.825Z,14.52
2023-01-28T07:01:24.362Z,15.48
2023-01-28T07:03:54.725Z,12.73
2023-01-28T07:06:22.125Z,13.30
2023-01-28T07:08:49.631Z,15.38
2023-01-28T07:11:17.209Z,14.15
2023-01-28T07:13:45.060Z,13.10
2023-01-28T07:16:12.527Z,13.38
2023-01-28T07:18:39.886Z,14.13
2023-01-28T07:21:07.240Z,11.93
2023-01-28T07:23:34.699Z,13.05
2023-01-28T07:26:03.531Z,16.17
2023-01-28T07:28:31.209Z,13.25
2023-01-28T07:30:58.735Z,13.10
2023-01-28T07:33:26.212Z,13.30
2023-01-28T07:35:53.743Z,11.55
2023-01-28T07:38:21.118Z,15.50
2023-01-28T07:40:48.694Z,15.52
2023-01-28T07:43:16.172Z,12.40
2023-01-28T07:45:43.764Z,12.38
2023-01-28T07:48:13.086Z,13.50
2023-01-28T07:50:41.140Z,13.65
2023-01-28T07:53:11.293Z,12.30
2023-01-28T07:55:39.443Z,11.88
2023-01-28T07:58:08.184Z,12.02
2023-01-28T08:00:37.060Z,11.02
2023-01-28T08:03:06.866Z,13.98
2023-01-28T08:05:48.904Z,11.40
2023-01-28T08:08:16.593Z,12.27
2023-01-28T08:10:44.294Z,13.73
2023-01-28T08:13:15.832Z,13.32
2023-01-28T08:15:43.718Z,10.02
2023-01-28T08:18:15.216Z,14.43
2023-01-28T08:20:49.527Z,12.15
2023-01-28T08:23:29.281Z,11.63
2023-01-28T08:25:59.426Z,12.40
2023-01-28T08:28:27.178Z,10.73
2023-01-28T08:30:54.586Z,10.60
2023-01-28T08:33:22.188Z,9.85
2023-01-28T08:35:49.686Z,11.77
2023-01-28T08:38:17.949Z,14.30
2023-01-28T08:40:45.462Z,12.45
2023-01-28T08:43:13.058Z,11.45
2023-01-28T08:45:41.633Z,12.77
2023-01-28T08:48:12.520Z,11.88
2023-01-28T08:50:40.575Z,11.88
2023-01-28T08:53:13.616Z,10.80
2023-01-28T08:55:43.593Z,12.25
2023-01-28T08:58:13.198Z,12.57
2023-01-28T09:00:41.005Z,12.02
2023-01-28T09:03:08.886Z,13.98
2023-01-28T09:05:37.418Z,11.95
2023-01-28T09:08:10.678Z,11.88
2023-01-28T09:10:38.958Z,13.38
2023-01-28T09:13:11.558Z,11.57
2023-01-28T09:15:39.678Z,12.57
2023-01-28T09:18:07.500Z,13.00
2023-01-28T09:20:34.995Z,13.30
2023-01-28T09:23:02.995Z,13.25
2023-01-28T09:25:30.863Z,12.30
2023-01-28T09:27:58.707Z,13.00
2023-01-28T09:30:26.501Z,13.30
2023-01-28T09:32:55.085Z,17.20
2023-01-28T09:35:23.079Z,17.25
2023-01-28T09:37:50.567Z,16.30
2023-01-28T09:40:36.772Z,15.18
2023-01-28T09:43:57.228Z,14.02
2023-01-28T09:46:32.269Z,15.85
2023-01-28T09:49:01.585Z,17.38
2023-01-28T09:51:36.472Z,15.93
2023-01-28T09:54:27.063Z,16.58
2023-01-28T09:57:07.128Z,13.15
2023-01-28T09:59:36.358Z,13.75
2023-01-28T10:02:22.219Z,15.35
2023-01-28T10:04:57.419Z,13.52
2023-01-28T10:07:27.954Z,14.05
2023-01-28T10:10:07.624Z,13.90
2023-01-28T10:12:50.499Z,16.30
2023-01-28T10:15:48.121Z,16.88
2023-01-28T10:18:18.011Z,15.48
2023-01-28T10:21:11.041Z,17.23
2023-01-28T10:24:08.107Z,16.45
2023-01-28T10:26:38.663Z,15.02
2023-01-28T10:29:19.849Z,16.90
2023-01-28T10:32:03.115Z,16.80
2023-01-28T10:34:30.463Z,16.90
2023-01-28T10:37:00.395Z,16.25
2023-01-28T10:39:29.473Z,15.63
2023-01-28T10:41:58.532Z,15.85
2023-01-28T10:44:44.058Z,15.50
2023-01-28T10:47:15.211Z,13.90
2023-01-28T10:49:46.629Z,17.23
2023-01-28T10:52:17.430Z,15.18
2023-01-28T10:54:44.843Z,12.40
2023-01-28T10:57:16.088Z,14.95
2023-01-28T10:59:43.528Z,13.35
2023-01-28T11:02:41.185Z,13.98
2023-01-28T11:05:17.515Z,16.80
2023-01-28T11:07:45.611Z,13.82
2023-01-28T11:10:32.477Z,13.90
2023-01-28T11:13:02.867Z,12.35
2023-01-28T11:15:30.519Z,16.45
2023-01-28T11:18:10.710Z,15.65
2023-01-28T11:20:42.787Z,15.50
2023-01-28T11:23:28.847Z,13.20
2023-01-28T11:26:09.321Z,12.57
2023-01-28T11:28:41.482Z,13.65
2023-01-28T11:31:09.894Z,13.73
2023-01-28T11:33:46.248Z,15.98
2023-01-28T11:36:19.233Z,13.57
2023-01-28T11:39:00.384Z,13.05
2023-01-28T11:41:30.976Z,12.77
2023-01-28T11:43:59.681Z,11.43
2023-01-28T11:46:49.178Z,15.07
2023-01-28T11:49:25.878Z,11.60
2023-01-28T11:52:02.420Z,14.05
2023-01-28T11:54:55.536Z,11.30
2023-01-28T11:57:52.002Z,12.27
2023-01-28T12:00:31.594Z,12.18
2023-01-28T12:03:36.533Z,13.25
2023-01-28T12:06:37.869Z,11.85
2023-01-28T12:09:37.200Z,12.57
2023-01-28T12:12:39.482Z,11.02
2023-01-28T12:15:06.833Z,13.52
2023-01-28T12:17:43.404Z,12.30
2023-01-28T12:20:32.082Z,13.52
2023-01-28T12:23:02.120Z,12.68
2023-01-28T12:25:35.383Z,10.88
2023-01-28T12:28:25.786Z,11.13
2023-01-28T12:31:33.278Z,9.73
2023-01-28T12:34:44.670Z,11.98
2023-01-28T12:37:27.237Z,10.23
2023-01-28T12:40:10.296Z,14.50
2023-01-28T12:45:21.125Z,10.48
2023-01-28T12:47:55.504Z,13.13
2023-01-28T12:50:36.984Z,13.05
2023-01-28T12:53:41.181Z,14.38
2023-01-28T12:56:17.009Z,11.75
2023-01-28T12:58:55.335Z,10.52
2023-01-28T13:01:30.396Z,12.70
2023-01-28T13:04:24.799Z,13.18
2023-01-28T13:06:58.228Z,13.23
2023-01-28T13:09:27.247Z,14.23
2023-01-28T13:11:58.496Z,12.18
2023-01-28T13:14:31.093Z,12.02
2023-01-28T13:17:11.977Z,10.98
2023-01-28T13:19:42.755Z,12.82
2023-01-28T13:22:33.664Z,12.20
2023-01-28T13:25:24.432Z,12.45
2023-01-28T13:28:25.184Z,13.90
2023-01-28T13:30:53.579Z,12.52
2023-01-28T13:33:30.436Z,10.43
2023-01-28T13:35:58.048Z,11.07
2023-01-28T13:38:25.664Z,10.80
2023-01-28T13:41:01.263Z,11.20
2023-01-28T13:43:40.421Z,10.45
2023-01-28T13:46:15.758Z,9.75
2023-01-28T13:48:43.137Z,10.63
2023-01-28T13:51:29.763Z,10.30
2023-01-28T13:54:07.493Z,13.13
2023-01-28T13:56:59.406Z,12.60
2023-01-28T13:59:48.420Z,10.57
2023-01-28T14:02:24.987Z,10.40
2023-01-28T14:05:24.157Z,10.00
2023-01-28T14:08:32.807Z,10.77
2023-01-28T14:11:20.414Z,10.32
2023-01-28T14:14:11.997Z,10.55
2023-01-28T14:16:39.374Z,9.98
2023-01-28T14:19:12.381Z,12.40
2023-01-28T14:21:39.766Z,9.40
2023-01-28T14:24:14.080Z,9.88
2023-01-28T14:27:06.094Z,9.95
2023-01-28T14:29:44.121Z,13.27
2023-01-28T14:32:17.564Z,11.50
2023-01-28T14:34:46.108Z,18.90
2023-01-28T14:37:25.061Z,12.63
2023-01-28T14:39:57.950Z,12.40
2023-01-28T14:45:15.233Z,11.18
2023-01-28T14:48:00.634Z,10.88
2023-01-28T14:50:34.356Z,10.38
2023-01-28T14:53:18.035Z,12.15
2023-01-28T14:56:19.489Z,11.50
2023-01-28T14:59:13.390Z,9.30
2023-01-28T15:01:46.618Z,11.88
2023-01-28T15:04:29.876Z,11.82
2023-01-28T15:06:58.077Z,10.73
2023-01-28T15:09:25.774Z,12.93
2023-01-28T15:11:55.547Z,10.32
2023-01-28T15:14:33.196Z,14.95
2023-01-28T15:17:01.524Z,12.77
2023-01-28T15:19:35.074Z,12.45
2023-01-28T15:22:09.740Z,12.55
2023-01-28T15:24:37.716Z,11.95
2023-01-28T15:27:05.158Z,10.40
2023-01-28T15:29:37.273Z,11.70
2023-01-28T15:32:05.572Z,10.18
2023-01-28T15:34:32.966Z,10.63
2023-01-28T15:37:01.365Z,14.40
2023-01-28T15:39:29.907Z,14.43
2023-01-28T15:41:57.271Z,12.82
2023-01-28T15:44:31.630Z,11.52
2023-01-28T15:47:04.755Z,12.07
2023-01-28T15:49:36.991Z,12.60
2023-01-28T15:52:05.566Z,11.60
2023-01-28T15:54:32.986Z,11.57
2023-01-28T15:57:19.753Z,9.10
2023-01-28T15:59:47.490Z,11.50
2023-01-28T16:02:19.273Z,12.30
2023-01-28T16:05:10.828Z,15.68
2023-01-28T16:07:45.744Z,11.15
2023-01-28T16:10:22.313Z,9.70
2023-01-28T16:12:53.121Z,11.77
2023-01-28T16:15:21.733Z,12.15
2023-01-28T16:17:51.167Z,11.70
2023-01-28T16:20:27.613Z,10.70
2023-01-28T16:23:00.628Z,11.25
2023-01-28T16:25:31.778Z,13.20
2023-01-28T16:28:00.640Z,14.15
2023-01-28T16:30:28.694Z,15.57
2023-01-28T16:32:56.191Z,16.23
2023-01-28T16:35:29.814Z,16.83
2023-01-28T16:38:00.879Z,16.10
2023-01-28T16:40:28.388Z,18.05
2023-01-28T16:43:02.308Z,19.23
2023-01-28T16:45:32.257Z,18.40
2023-01-28T16:48:01.103Z,19.92
2023-01-28T16:50:28.486Z,22.98
2023-01-28T16:52:58.175Z,18.17
2023-01-28T16:55:25.737Z,23.23
2023-01-28T16:57:55.789Z,20.17
2023-01-28T17:00:25.872Z,21.52
2023-01-28T17:02:54.286Z,18.90
2023-01-28T17:05:23.273Z,20.13
2023-01-28T17:07:51.250Z,18.45
2023-01-28T17:10:21.837Z,18.70
2023-01-28T17:12:49.447Z,20.90
2023-01-28T17:15:18.705Z,20.05
2023-01-28T17:17:49.447Z,18.67
2023-01-28T17:20:17.203Z,19.80
2023-01-28T17:22:47.708Z,22.48
2023-01-28T17:25:15.595Z,19.27
2023-01-28T17:27:43.107Z,21.30
2023-01-28T17:30:11.117Z,18.30
2023-01-28T17:32:38.466Z,18.42
2023-01-28T17:35:06.460Z,20.88
2023-01-28T17:37:33.764Z,18.80
2023-01-28T17:40:01.132Z,20.25
2023-01-28T17:42:28.773Z,18.40
2023-01-28T17:44:57.183Z,20.30
2023-01-28T17:47:24.683Z,22.10
2023-01-28T17:49:52.016Z,18.55
2023-01-28T17:52:19.550Z,20.80
2023-01-28T17:54:46.906Z,18.45
2023-01-28T17:57:14.229Z,21.38
2023-01-28T17:59:41.846Z,20.52
2023-01-28T18:02:11.849Z,21.88
2023-01-28T18:04:40.577Z,18.08
2023-01-28T18:07:12.842Z,18.55
2023-01-28T18:09:47.941Z,18.27
2023-01-28T18:12:16.119Z,18.38
2023-01-28T18:14:46.003Z,19.42
2023-01-28T18:17:13.426Z,20.08
2023-01-28T18:19:40.949Z,19.40
2023-01-28T18:22:09.166Z,20.35
2023-01-28T18:24:36.539Z,19.30
2023-01-28T18:27:04.272Z,18.80
2023-01-28T18:29:32.213Z,17.38
2023-01-28T18:32:00.771Z,18.65
2023-01-28T18:34:31.075Z,19.42
2023-01-28T18:36:58.826Z,20.95
2023-01-28T18:39:32.252Z,17.67
2023-01-28T18:42:00.270Z,22.67
2023-01-28T18:44:30.277Z,17.40
2023-01-28T18:46:58.289Z,18.88
2023-01-28T18:49:25.862Z,20.45
2023-01-28T18:51:54.067Z,24.95
2023-01-28T18:54:28.152Z,22.58
2023-01-28T18:56:56.590Z,24.20
2023-01-28T18:59:24.346Z,22.50
2023-01-28T19:01:51.789Z,24.48
2023-01-28T19:04:19.284Z,21.73
2023-01-28T19:06:47.210Z,24.25
2023-01-28T19:09:15.839Z,23.08
2023-01-28T19:11:43.272Z,23.50
2023-01-28T19:14:13.240Z,25.23
2023-01-28T19:16:42.202Z,25.38
2023-01-28T19:19:10.033Z,25.77
2023-01-28T19:21:38.024Z,26.88
2023-01-28T19:24:09.897Z,26.67
2023-01-28T19:26:39.140Z,26.83
2023-01-28T19:29:12.081Z,24.92
2023-01-28T19:31:40.256Z,28.05
2023-01-28T19:34:10.573Z,29.02
2023-01-28T19:36:40.747Z,26.92
2023-01-28T19:39:11.653Z,25.05
2023-01-28T19:41:39.123Z,25.13
2023-01-28T19:44:07.130Z,30.60
2023-01-28T19:46:36.140Z,26.42
2023-01-28T19:49:09.017Z,27.92
2023-01-28T19:54:07.158Z,28.02
2023-01-28T19:56:36.191Z,26.63
2023-01-28T19:59:03.748Z,28.80
2023-01-28T20:01:32.423Z,26.02
2023-01-28T20:04:00.646Z,30.10
2023-01-28T20:06:29.687Z,27.70
2023-01-28T20:09:02.302Z,26.67
2023-01-28T20:11:30.084Z,25.20
2023-01-28T20:13:58.638Z,34.35
2023-01-28T20:16:31.729Z,29.63
2023-01-28T20:19:04.728Z,29.08
2023-01-28T20:21:32.809Z,31.33
2023-01-28T20:24:08.169Z,29.33
2023-01-28T20:26:37.511Z,30.38
2023-01-28T20:29:07.257Z,29.13
2023-01-28T20:31:35.231Z,25.45
2023-01-28T20:34:03.056Z,28.92
2023-01-28T20:36:30.888Z,27.20
2023-01-28T20:38:59.483Z,30.48
2023-01-28T20:41:27.725Z,28.70
2023-01-28T20:43:55.960Z,26.77
2023-01-28T20:46:31.916Z,27.35
2023-01-28T20:49:03.577Z,32.08
2023-01-28T20:51:34.624Z,27.50
2023-01-28T20:54:03.870Z,31.50
2023-01-28T20:56:34.155Z,35.33
2023-01-28T20:59:04.155Z,31.65
2023-01-28T21:01:36.275Z,29.05
2023-01-28T21:04:04.808Z,33.60
2023-01-28T21:06:32.763Z,30.40
2023-01-28T21:09:01.371Z,33.80
2023-01-28T21:11:29.992Z,32.45
2023-01-28T21:13:57.744Z,29.38
2023-01-28T21:16:25.583Z,34.15
2023-01-28T21:18:55.490Z,29.08
2023-01-28T21:21:25.794Z,36.50
2023-01-28T21:24:25.443Z,33.42
2023-01-28T21:26:52.875Z,35.50
2023-01-28T21:29:20.422Z,31.52
2023-01-28T21:31:47.897Z,31.50
2023-01-28T21:34:16.076Z,32.83
2023-01-28T21:36:43.802Z,30.55
2023-01-28T21:39:11.672Z,32.60
2023-01-28T21:41:39.234Z,30.60
2023-01-28T21:44:23.930Z,33.65
2023-01-28T21:46:53.121Z,36.15
2023-01-28T21:49:20.665Z,33.42
2023-01-28T21:51:48.100Z,31.95
2023-01-28T21:54:21.839Z,34.25
2023-01-28T21:56:50.716Z,35.25
2023-01-28T21:59:28.730Z,32.75
2023-01-28T22:02:00.871Z,32.05
2023-01-28T22:04:31.457Z,39.05
2023-01-28T22:06:59.407Z,32.13
2023-01-28T22:09:28.562Z,32.85
2023-01-28T22:11:56.274Z,33.60
2023-01-28T22:14:23.675Z,38.80
2023-01-28T22:16:51.162Z,36.65
2023-01-28T22:19:18.849Z,36.03
2023-01-28T22:21:46.938Z,38.08
2023-01-28T22:24:20.757Z,34.97
2023-01-28T22:26:48.506Z,35.30
2023-01-28T22:29:18.298Z,35.85
2023-01-28T22:31:46.589Z,38.58
2023-01-28T22:34:14.290Z,37.00
2023-01-28T22:36:41.650Z,37.15
2023-01-28T22:39:13.394Z,33.47
2023-01-28T22:41:41.616Z,35.75
2023-01-28T22:44:09.458Z,36.88
2023-01-28T22:46:38.118Z,35.67
2023-01-28T22:49:05.929Z,36.67
2023-01-28T22:51:35.331Z,40.78
2023-01-28T22:54:03.400Z,35.45
2023-01-28T22:56:31.807Z,39.17
2023-01-28T22:59:01.783Z,38.30
2023-01-28T23:01:30.008Z,39.33
2023-01-28T23:03:57.918Z,37.97
2023-01-28T23:06:26.540Z,37.97
2023-01-28T23:08:56.887Z,39.70
2023-01-28T23:11:28.202Z,43.10
2023-01-28T23:14:17.382Z,35.45
2023-01-28T23:17:03.525Z,36.50
2023-01-28T23:19:49.704Z,36.95
2023-01-28T23:22:50.201Z,36.55
2023-01-28T23:25:18.383Z,36.95
2023-01-28T23:27:45.789Z,35.72
2023-01-28T23:30:14.510Z,38.35
2023-01-28T23:32:47.836Z,41.08
2023-01-28T23:37:42.663Z,41.78
2023-01-28T23:40:12.186Z,36.40
2023-01-28T23:42:39.496Z,37.13
2023-01-28T23:45:07.727Z,35.50
2023-01-28T23:47:35.214Z,38.97
2023-01-28T23:50:02.950Z,37.92
2023-01-28T23:52:30.370Z,34.90
2023-01-28T23:54:57.744Z,37.88
2023-01-28T23:57:25.173Z,36.08
2023-01-28T23:59:52.587Z,35.42
